createdAt,value
2023-03-18T00:00:17.561Z,99.90
2023-03-18T00:02:44.903Z,99.90
2023-03-18T00:05:12.808Z,99.90
2023-03-18T00:07:40.315Z,99.90
2023-03-18T00:10:09.962Z,99.90
2023-03-18T00:12:38.765Z,99.90
2023-03-18T00:15:07.904Z,99.90
2023-03-18T00:17:35.045Z,99.90
2023-03-18T00:20:05.925Z,99.90
2023-03-18T00:22:37.386Z,99.90
2023-03-18T00:25:05.805Z,99.90
2023-03-18T00:27:33.608Z,99.90
2023-03-18T00:30:00.763Z,99.90
2023-03-18T05:31:59.735Z,99.90
2023-03-18T05:34:27.497Z,99.90
2023-03-18T05:36:54.342Z,99.90
2023-03-18T05:39:21.055Z,99.90
2023-03-18T05:41:47.754Z,99.90
2023-03-18T05:44:14.820Z,99.90
2023-03-18T05:46:41.914Z,99.90
2023-03-18T05:49:09.046Z,99.90
2023-03-18T05:51:35.762Z,99.90
2023-03-18T05:54:04.007Z,99.90
2023-03-18T05:56:31.199Z,99.90
2023-03-18T05:58:58.709Z,99.90
2023-03-18T06:01:26.101Z,99.90
2023-03-18T06:03:53.649Z,99.90
2023-03-18T06:06:20.421Z,99.90
2023-03-18T06:08:47.132Z,99.90
2023-03-18T06:11:13.853Z,99.90
2023-03-18T06:13:41.390Z,99.90
2023-03-18T06:16:08.698Z,99.90
2023-03-18T06:18:35.476Z,99.90
2023-03-18T06:21:02.150Z,99.90
2023-03-18T06:23:28.820Z,99.90
2023-03-18T06:25:55.732Z,99.90
2023-03-18T06:28:22.506Z,99.90
2023-03-18T06:30:49.199Z,99.90
2023-03-18T06:33:16.438Z,99.90
2023-03-18T06:35:44.086Z,99.90
2023-03-18T06:38:14.237Z,99.90
2023-03-18T06:40:40.914Z,99.90
2023-03-18T06:43:07.675Z,99.90
2023-03-18T06:45:34.485Z,99.90
2023-03-18T06:48:01.820Z,99.90
2023-03-18T06:50:28.694Z,99.90
2023-03-18T06:52:55.582Z,99.90
2023-03-18T06:55:22.821Z,99.90
2023-03-18T06:57:49.604Z,99.90
2023-03-18T07:00:17.404Z,99.90
2023-03-18T07:02:44.396Z,99.90
2023-03-18T07:05:12.710Z,99.90
2023-03-18T07:07:40.789Z,99.90
2023-03-18T07:10:09.807Z,99.90
2023-03-18T07:12:36.942Z,99.90
2023-03-18T07:15:04.432Z,99.90
2023-03-18T07:17:31.744Z,99.90
2023-03-18T07:19:58.739Z,99.90
2023-03-18T07:22:25.481Z,99.90
2023-03-18T07:24:52.523Z,99.90
2023-03-18T07:27:19.241Z,99.90
2023-03-18T07:29:46.480Z,99.90
2023-03-18T07:32:13.340Z,99.90
2023-03-18T07:34:40.029Z,99.90
2023-03-18T07:37:06.842Z,99.90
2023-03-18T07:39:33.678Z,99.90
2023-03-18T07:42:00.799Z,99.90
2023-03-18T07:44:27.516Z,99.90
2023-03-18T07:46:54.394Z,99.90
2023-03-18T07:49:21.710Z,99.90
2023-03-18T07:51:48.388Z,99.90
2023-03-18T07:54:15.098Z,99.90
2023-03-18T07:56:41.994Z,99.90
2023-03-18T07:59:10.340Z,99.90
2023-03-18T08:01:36.979Z,99.90
2023-03-18T08:04:04.283Z,99.90
2023-03-18T08:06:30.953Z,99.90
2023-03-18T08:08:57.663Z,99.90
2023-03-18T08:11:24.548Z,99.90
2023-03-18T08:13:51.234Z,97.80
2023-03-18T08:16:18.733Z,94.30
2023-03-18T08:18:45.790Z,92.70
2023-03-18T08:21:12.458Z,90.60
2023-03-18T08:23:39.261Z,87.00
2023-03-18T08:26:05.932Z,83.30
2023-03-18T08:28:32.663Z,78.30
2023-03-18T08:30:59.586Z,73.50
2023-03-18T08:33:27.806Z,69.60
2023-03-18T08:35:56.188Z,66.50
2023-03-18T08:38:23.849Z,63.60
2023-03-18T08:40:50.842Z,60.10
2023-03-18T08:43:17.917Z,58.00
2023-03-18T08:45:44.777Z,56.50
2023-03-18T08:48:11.448Z,54.70
2023-03-18T08:50:38.799Z,53.40
2023-03-18T08:53:05.777Z,52.60
2023-03-18T08:55:37.164Z,51.40
2023-03-18T08:58:05.757Z,50.10
2023-03-18T09:00:33.927Z,49.80
2023-03-18T09:03:00.644Z,49.00
2023-03-18T09:05:27.357Z,48.20
2023-03-18T09:07:54.072Z,47.30
2023-03-18T09:10:21.467Z,46.90
2023-03-18T09:12:49.866Z,45.30
2023-03-18T09:15:20.201Z,44.90
2023-03-18T09:18:00.383Z,43.80
2023-03-18T09:20:35.183Z,43.00
2023-03-18T09:23:02.436Z,42.60
2023-03-18T09:25:29.235Z,42.70
2023-03-18T09:27:56.062Z,42.30
2023-03-18T09:30:22.817Z,41.70
2023-03-18T09:32:49.795Z,40.90
2023-03-18T09:35:16.943Z,39.00
2023-03-18T09:37:44.507Z,38.00
2023-03-18T09:40:33.273Z,38.00
2023-03-18T09:43:20.667Z,37.50
2023-03-18T09:46:09.564Z,36.80
2023-03-18T09:49:10.011Z,36.40
2023-03-18T09:51:37.281Z,35.70
2023-03-18T09:54:20.158Z,35.10
2023-03-18T09:56:47.723Z,35.40
2023-03-18T09:59:30.715Z,35.60
2023-03-18T10:01:58.520Z,35.10
2023-03-18T10:04:28.830Z,35.60
2023-03-18T10:07:06.434Z,35.70
2023-03-18T10:09:42.974Z,36.50
2023-03-18T10:12:31.095Z,37.20
2023-03-18T10:15:07.252Z,38.80
2023-03-18T10:17:54.105Z,38.90
2023-03-18T10:20:55.527Z,39.40
2023-03-18T10:23:41.746Z,37.90
2023-03-18T10:26:19.719Z,36.30
2023-03-18T10:29:01.486Z,35.90
2023-03-18T10:31:43.982Z,34.50
2023-03-18T10:34:14.845Z,34.10
2023-03-18T10:37:30.604Z,33.40
2023-03-18T10:39:59.601Z,33.60
2023-03-18T10:42:31.979Z,32.40
2023-03-18T10:45:27.271Z,32.90
2023-03-18T10:48:05.973Z,32.70
2023-03-18T10:50:41.164Z,32.60
2023-03-18T10:53:28.561Z,33.90
2023-03-18T10:56:15.519Z,34.40
2023-03-18T10:58:42.945Z,33.10
2023-03-18T11:01:13.094Z,32.40
2023-03-18T11:04:01.877Z,32.10
2023-03-18T11:06:48.557Z,31.80
2023-03-18T11:09:22.280Z,32.00
2023-03-18T11:11:55.676Z,32.40
2023-03-18T11:14:28.817Z,31.90
2023-03-18T11:17:01.516Z,32.10
2023-03-18T11:19:39.214Z,31.50
2023-03-18T11:22:22.219Z,29.90
2023-03-18T11:25:16.490Z,31.10
2023-03-18T11:27:46.339Z,31.80
2023-03-18T11:30:40.709Z,30.70
2023-03-18T11:33:10.547Z,29.90
2023-03-18T11:35:52.495Z,29.70
2023-03-18T11:38:31.608Z,29.60
2023-03-18T11:41:13.417Z,29.20
2023-03-18T11:43:56.223Z,29.80
2023-03-18T11:47:06.297Z,30.30
2023-03-18T11:49:34.312Z,29.80
2023-03-18T11:52:19.184Z,30.10
2023-03-18T11:54:45.956Z,29.60
2023-03-18T11:57:43.708Z,28.70
2023-03-18T12:00:31.860Z,28.30
2023-03-18T12:03:13.555Z,28.30
2023-03-18T12:06:05.409Z,28.70
2023-03-18T12:08:50.795Z,29.20
2023-03-18T12:11:30.716Z,29.80
2023-03-18T12:14:30.772Z,30.20
2023-03-18T12:17:19.190Z,30.00
2023-03-18T12:20:11.500Z,30.30
2023-03-18T12:23:01.624Z,30.00
2023-03-18T12:26:06.271Z,30.30
2023-03-18T12:29:11.322Z,30.50
2023-03-18T12:32:06.794Z,31.00
2023-03-18T12:34:51.599Z,32.60
2023-03-18T12:37:47.433Z,32.40
2023-03-18T12:40:25.976Z,32.70
2023-03-18T12:43:27.177Z,33.30
2023-03-18T12:46:02.810Z,33.30
2023-03-18T12:48:51.547Z,34.20
2023-03-18T12:51:25.338Z,35.00
2023-03-18T12:54:07.882Z,35.20
2023-03-18T12:56:39.410Z,34.50
2023-03-18T12:59:29.537Z,36.70
2023-03-18T13:02:10.671Z,38.50
2023-03-18T13:04:39.938Z,37.70
2023-03-18T13:07:21.858Z,37.60
2023-03-18T13:10:02.549Z,37.30
2023-03-18T13:12:42.920Z,37.30
2023-03-18T13:15:15.485Z,37.40
2023-03-18T13:17:46.777Z,37.00
2023-03-18T13:20:23.994Z,38.00
2023-03-18T13:23:09.680Z,38.50
2023-03-18T13:25:49.422Z,38.30
2023-03-18T13:28:55.958Z,39.60
2023-03-18T13:31:38.169Z,39.50
2023-03-18T13:34:35.950Z,39.20
2023-03-18T13:37:15.527Z,38.10
2023-03-18T13:40:03.832Z,38.40
2023-03-18T13:42:36.183Z,39.40
2023-03-18T13:45:08.799Z,39.50
2023-03-18T13:47:38.177Z,38.80
2023-03-18T13:50:27.007Z,37.90
2023-03-18T13:52:56.085Z,38.30
2023-03-18T13:55:31.799Z,38.80
2023-03-18T13:58:05.274Z,38.10
2023-03-18T14:00:33.347Z,37.50
2023-03-18T14:03:24.918Z,37.30
2023-03-18T14:06:15.334Z,37.80
2023-03-18T14:08:42.693Z,37.60
2023-03-18T14:11:22.922Z,38.50
2023-03-18T14:13:58.580Z,38.80
2023-03-18T14:16:30.057Z,38.80
2023-03-18T14:19:06.053Z,39.00
2023-03-18T14:21:34.197Z,40.70
2023-03-18T14:24:22.974Z,40.80
2023-03-18T14:26:58.840Z,40.10
2023-03-18T14:29:47.244Z,39.50
2023-03-18T14:32:22.974Z,39.60
2023-03-18T14:35:18.609Z,39.90
2023-03-18T14:38:22.406Z,40.30
2023-03-18T14:40:51.748Z,40.30
2023-03-18T14:43:34.488Z,40.50
2023-03-18T14:46:13.806Z,41.00
2023-03-18T14:48:40.801Z,40.90
2023-03-18T14:51:17.121Z,40.50
2023-03-18T14:54:16.795Z,39.70
2023-03-18T14:56:54.017Z,39.20
2023-03-18T14:59:24.560Z,39.90
2023-03-18T15:01:53.761Z,40.60
2023-03-18T15:04:24.838Z,40.80
2023-03-18T15:06:53.313Z,41.90
2023-03-18T15:09:27.072Z,41.90
2023-03-18T15:11:54.434Z,42.90
2023-03-18T15:14:32.154Z,43.20
2023-03-18T15:17:01.321Z,44.30
2023-03-18T15:19:28.848Z,44.50
2023-03-18T15:21:58.425Z,45.20
2023-03-18T15:24:26.914Z,44.00
2023-03-18T15:26:57.855Z,44.00
2023-03-18T15:29:26.573Z,43.40
2023-03-18T15:31:53.624Z,42.50
2023-03-18T15:34:21.835Z,42.00
2023-03-18T15:36:56.980Z,41.80
2023-03-18T15:39:41.767Z,42.10
2023-03-18T15:42:20.212Z,42.70
2023-03-18T15:44:58.880Z,41.80
2023-03-18T15:47:32.189Z,41.80
2023-03-18T15:50:01.701Z,41.90
2023-03-18T15:52:34.309Z,42.10
2023-03-18T15:55:01.455Z,42.20
2023-03-18T15:57:44.657Z,42.30
2023-03-18T16:00:13.184Z,42.30
2023-03-18T16:02:39.931Z,41.90
2023-03-18T16:05:17.761Z,42.00
2023-03-18T16:07:45.000Z,42.40
2023-03-18T16:10:12.625Z,43.20
2023-03-18T16:12:40.918Z,43.90
2023-03-18T16:15:14.007Z,43.70
2023-03-18T16:17:40.754Z,43.60
2023-03-18T16:20:21.677Z,43.80
2023-03-18T16:22:49.324Z,45.50
2023-03-18T16:25:17.269Z,48.00
2023-03-18T16:27:56.359Z,49.00
2023-03-18T16:30:29.187Z,49.60
2023-03-18T16:32:59.592Z,50.90
2023-03-18T16:35:32.503Z,52.10
2023-03-18T16:38:00.507Z,53.30
2023-03-18T16:40:29.673Z,53.80
2023-03-18T16:43:04.347Z,54.40
2023-03-18T16:45:33.823Z,54.00
2023-03-18T16:48:07.731Z,53.70
2023-03-18T16:50:37.594Z,53.40
2023-03-18T16:53:19.269Z,54.00
2023-03-18T16:55:49.413Z,53.40
2023-03-18T16:58:23.257Z,53.90
2023-03-18T17:00:51.336Z,54.20
2023-03-18T17:03:19.770Z,54.60
2023-03-18T17:05:53.550Z,55.90
2023-03-18T17:08:21.746Z,56.70
2023-03-18T17:10:52.494Z,55.70
2023-03-18T17:13:23.092Z,57.80
2023-03-18T17:15:51.060Z,59.60
2023-03-18T17:18:20.540Z,60.20
2023-03-18T17:20:48.349Z,61.70
2023-03-18T17:23:17.285Z,61.30
2023-03-18T17:25:48.653Z,60.70
2023-03-18T17:28:22.127Z,61.70
2023-03-18T17:30:50.373Z,61.80
2023-03-18T17:33:20.789Z,63.40
2023-03-18T17:35:47.616Z,65.10
2023-03-18T17:38:15.639Z,63.70
2023-03-18T17:40:43.125Z,64.50
2023-03-18T17:43:21.380Z,63.50
2023-03-18T17:45:48.618Z,63.10
2023-03-18T17:48:20.252Z,61.60
2023-03-18T17:50:49.133Z,62.30
2023-03-18T17:53:23.997Z,62.40
2023-03-18T17:55:50.878Z,62.90
2023-03-18T17:58:19.092Z,63.30
2023-03-18T18:00:47.717Z,63.40
2023-03-18T18:03:25.577Z,62.70
2023-03-18T18:05:54.337Z,62.70
2023-03-18T18:08:25.352Z,62.80
2023-03-18T18:11:04.446Z,63.50
2023-03-18T18:13:31.345Z,64.60
2023-03-18T18:15:58.762Z,65.10
2023-03-18T18:18:28.996Z,64.40
2023-03-18T18:21:01.624Z,65.00
2023-03-18T18:23:31.141Z,65.10
2023-03-18T18:26:00.469Z,65.20
2023-03-18T18:28:48.620Z,64.90
2023-03-18T18:31:19.770Z,66.10
2023-03-18T18:33:49.955Z,66.40
2023-03-18T18:36:18.178Z,68.00
2023-03-18T18:38:45.390Z,67.90
2023-03-18T18:41:12.501Z,67.50
2023-03-18T18:43:39.268Z,66.60
2023-03-18T18:46:14.922Z,66.70
2023-03-18T18:48:44.347Z,68.20
2023-03-18T18:51:17.385Z,69.00
2023-03-18T18:53:45.389Z,69.80
2023-03-18T18:56:19.944Z,70.70
2023-03-18T18:58:47.805Z,69.90
2023-03-18T19:01:15.089Z,70.30
2023-03-18T19:03:42.039Z,70.40
2023-03-18T19:06:27.937Z,70.60
2023-03-18T19:08:57.692Z,70.60
2023-03-18T19:11:25.447Z,71.10
2023-03-18T19:13:53.232Z,70.90
2023-03-18T19:16:30.636Z,71.00
2023-03-18T19:18:59.457Z,71.50
2023-03-18T19:21:29.416Z,71.90
2023-03-18T19:23:58.104Z,72.50
2023-03-18T19:26:24.883Z,72.70
2023-03-18T19:28:58.963Z,72.50
2023-03-18T19:31:30.393Z,72.80
2023-03-18T19:33:59.715Z,72.90
2023-03-18T19:36:32.719Z,73.80
2023-03-18T19:39:01.814Z,74.50
2023-03-18T19:41:30.907Z,74.60
2023-03-18T19:44:19.150Z,73.90
2023-03-18T19:46:47.871Z,72.70
2023-03-18T19:49:33.739Z,72.90
2023-03-18T19:52:02.041Z,71.60
2023-03-18T19:54:34.818Z,71.10
2023-03-18T19:57:04.977Z,70.60
2023-03-18T19:59:38.565Z,70.50
2023-03-18T20:02:26.400Z,70.10
2023-03-18T20:04:58.804Z,69.90
2023-03-18T20:07:29.520Z,69.80
2023-03-18T20:09:56.294Z,70.20
2023-03-18T20:12:33.021Z,69.80
2023-03-18T20:14:59.735Z,69.50
2023-03-18T20:17:32.015Z,68.60
2023-03-18T20:19:58.907Z,70.20
2023-03-18T20:22:33.741Z,71.30
2023-03-18T20:25:05.309Z,71.50
2023-03-18T20:27:32.107Z,71.90
2023-03-18T20:29:59.179Z,72.10
2023-03-18T20:32:26.192Z,72.80
2023-03-18T20:34:53.050Z,72.00
2023-03-18T20:37:29.763Z,72.50
2023-03-18T20:39:56.513Z,72.90
2023-03-18T20:42:23.423Z,73.10
2023-03-18T20:44:50.060Z,73.70
2023-03-18T20:47:16.747Z,74.20
2023-03-18T20:49:46.479Z,75.00
2023-03-18T20:52:30.280Z,75.00
2023-03-18T20:54:57.398Z,76.10
2023-03-18T20:57:25.246Z,76.20
2023-03-18T20:59:52.761Z,76.40
2023-03-18T21:02:30.935Z,76.20
2023-03-18T21:04:59.430Z,76.00
2023-03-18T21:07:26.627Z,77.00
2023-03-18T21:09:53.757Z,75.90
2023-03-18T21:12:22.067Z,75.80
2023-03-18T21:14:49.638Z,76.10
2023-03-18T21:17:24.596Z,76.70
2023-03-18T21:19:52.708Z,76.20
2023-03-18T21:22:30.665Z,75.30
2023-03-18T21:24:57.844Z,76.40
2023-03-18T21:27:28.378Z,77.50
2023-03-18T21:29:57.696Z,77.80
2023-03-18T21:32:28.095Z,78.60
2023-03-18T21:34:55.803Z,79.50
2023-03-18T21:37:24.804Z,80.70
2023-03-18T21:39:51.492Z,81.60
2023-03-18T21:42:30.493Z,82.30
2023-03-18T21:44:57.355Z,82.80
2023-03-18T21:47:25.991Z,83.60
2023-03-18T21:49:53.278Z,84.30
2023-03-18T21:52:29.439Z,84.50
2023-03-18T21:54:56.660Z,84.20
2023-03-18T21:57:24.175Z,84.20
2023-03-18T21:59:52.363Z,84.70
2023-03-18T22:02:29.289Z,86.40
2023-03-18T22:04:58.166Z,86.40
2023-03-18T22:07:26.955Z,87.40
2023-03-18T22:09:54.621Z,88.30
2023-03-18T22:12:22.895Z,88.90
2023-03-18T22:14:49.627Z,89.60
2023-03-18T22:17:32.699Z,88.90
2023-03-18T22:20:00.977Z,88.90
2023-03-18T22:22:36.926Z,88.40
2023-03-18T22:25:04.349Z,88.20
2023-03-18T22:27:32.215Z,89.80
2023-03-18T22:30:00.676Z,90.00
2023-03-18T22:32:42.120Z,90.10
2023-03-18T22:35:17.633Z,90.00
2023-03-18T22:37:45.363Z,90.30
2023-03-18T22:40:19.333Z,90.50
2023-03-18T22:42:48.484Z,90.40
2023-03-18T22:45:27.739Z,90.70
2023-03-18T22:47:57.295Z,91.20
2023-03-18T22:50:26.382Z,91.50
2023-03-18T22:53:00.361Z,91.20
2023-03-18T22:55:32.055Z,91.40
2023-03-18T22:57:58.869Z,91.60
2023-03-18T23:00:42.516Z,92.00
2023-03-18T23:03:19.021Z,91.90
2023-03-18T23:05:51.623Z,92.40
2023-03-18T23:08:19.317Z,92.80
2023-03-18T23:10:46.879Z,93.80
2023-03-18T23:13:19.046Z,94.10
2023-03-18T23:15:45.924Z,94.40
2023-03-18T23:18:15.525Z,94.70
2023-03-18T23:20:44.599Z,94.20
2023-03-18T23:23:12.216Z,94.30
2023-03-18T23:25:40.948Z,95.00
2023-03-18T23:28:08.273Z,95.00
2023-03-18T23:30:36.844Z,95.60
2023-03-18T23:33:03.668Z,95.90
2023-03-18T23:35:30.353Z,96.20
2023-03-18T23:37:57.028Z,96.60
2023-03-18T23:40:24.107Z,96.90
2023-03-18T23:42:50.750Z,97.10
2023-03-18T23:45:17.570Z,97.40
2023-03-18T23:47:44.331Z,97.50
2023-03-18T23:50:11.300Z,97.40
2023-03-18T23:52:38.207Z,97.70
2023-03-18T23:55:17.883Z,98.30
2023-03-18T23:57:53.024Z,98.40
